sensor_id;sensor_type;location;lat;lon;timestamp;pressure;altitude;pressure_sealevel;temperature;humidity
13241;BME280;6687;47.790;7.322;2022-10-16T06:12:43;98958.59;;;14.28;100.00
13241;BME280;6687;47.790;7.322;2022-10-16T06:15:10;98964.53;;;14.39;100.00
13241;BME280;6687;47.790;7.322;2022-10-16T06:17:36;98959.03;;;14.62;100.00
13241;BME280;6687;47.790;7.322;2022-10-16T06:20:03;98968.59;;;14.60;100.00
13241;BME280;6687;47.790;7.322;2022-10-16T06:22:30;98970.16;;;14.72;100.00
13241;BME280;6687;47.790;7.322;2022-10-16T06:24:57;98967.66;;;14.67;100.00
13241;BME280;6687;47.790;7.322;2022-10-16T06:27:24;98972.16;;;14.55;100.00
13241;BME280;6687;47.790;7.322;2022-10-16T06:29:52;98964.84;;;14.80;100.00
13241;BME280;6687;47.790;7.322;2022-10-16T06:32:19;98953.31;;;14.95;100.00
13241;BME280;6687;47.790;7.322;2022-10-16T06:34:46;98964.94;;;14.75;100.00
13241;BME280;6687;47.790;7.322;2022-10-16T06:37:13;98956.78;;;14.95;100.00
13241;BME280;6687;47.790;7.322;2022-10-16T06:39:40;98960.97;;;15.04;100.00
13241;BME280;6687;47.790;7.322;2022-10-16T06:42:07;98970.00;;;14.84;100.00
13241;BME280;6687;47.790;7.322;2022-10-16T06:44:33;98972.44;;;14.95;100.00
13241;BME280;6687;47.790;7.322;2022-10-16T06:47:01;98978.38;;;15.05;100.00
13241;BME280;6687;47.790;7.322;2022-10-16T06:49:29;98992.66;;;14.82;100.00
13241;BME280;6687;47.790;7.322;2022-10-16T06:51:55;98987.88;;;15.10;100.00
13241;BME280;6687;47.790;7.322;2022-10-16T06:54:22;98989.44;;;15.19;100.00
13241;BME280;6687;47.790;7.322;2022-10-16T06:56:51;99000.13;;;15.04;100.00
13241;BME280;6687;47.790;7.322;2022-10-16T06:59:19;98992.84;;;15.24;100.00
13241;BME280;6687;47.790;7.322;2022-10-16T07:01:46;98999.66;;;15.35;99.80
13241;BME280;6687;47.790;7.322;2022-10-16T07:04:14;99004.88;;;15.33;100.00
13241;BME280;6687;47.790;7.322;2022-10-16T07:06:41;99011.66;;;15.43;100.00
13241;BME280;6687;47.790;7.322;2022-10-16T07:09:10;99019.47;;;15.45;100.00
13241;BME280;6687;47.790;7.322;2022-10-16T07:11:38;99021.97;;;15.51;99.09
13241;BME280;6687;47.790;7.322;2022-10-16T07:14:12;99023.63;;;15.57;98.50
13241;BME280;6687;47.790;7.322;2022-10-16T07:16:41;99020.16;;;15.56;98.12
13241;BME280;6687;47.790;7.322;2022-10-16T07:19:08;99030.56;;;15.58;98.98
13241;BME280;6687;47.790;7.322;2022-10-16T07:21:38;99016.50;;;15.66;97.23
13241;BME280;6687;47.790;7.322;2022-10-16T07:24:06;99027.69;;;15.75;95.67
13241;BME280;6687;47.790;7.322;2022-10-16T07:26:35;99037.31;;;15.73;98.11
13241;BME280;6687;47.790;7.322;2022-10-16T07:29:02;99043.16;;;15.85;95.78
13241;BME280;6687;47.790;7.322;2022-10-16T07:31:29;99039.53;;;15.94;94.32
13241;BME280;6687;47.790;7.322;2022-10-16T07:33:58;99039.44;;;16.00;93.69
13241;BME280;6687;47.790;7.322;2022-10-16T07:36:25;99037.53;;;16.08;93.50
13241;BME280;6687;47.790;7.322;2022-10-16T07:38:53;99045.31;;;16.12;92.19
13241;BME280;6687;47.790;7.322;2022-10-16T07:41:20;99045.19;;;16.18;91.43
13241;BME280;6687;47.790;7.322;2022-10-16T07:43:47;99052.84;;;16.27;91.27
13241;BME280;6687;47.790;7.322;2022-10-16T07:46:14;99047.56;;;16.30;90.94
13241;BME280;6687;47.790;7.322;2022-10-16T07:48:42;99057.75;;;16.44;90.12
13241;BME280;6687;47.790;7.322;2022-10-16T07:51:11;99050.84;;;16.41;89.69
13241;BME280;6687;47.790;7.322;2022-10-16T07:53:38;99057.50;;;16.55;89.37
13241;BME280;6687;47.790;7.322;2022-10-16T07:56:07;99052.97;;;16.63;88.91
13241;BME280;6687;47.790;7.322;2022-10-16T07:58:34;99064.28;;;16.65;88.61
13241;BME280;6687;47.790;7.322;2022-10-16T08:01:03;99062.34;;;16.73;88.79
13241;BME280;6687;47.790;7.322;2022-10-16T08:03:30;99055.28;;;16.78;87.74
13241;BME280;6687;47.790;7.322;2022-10-16T08:05:57;99057.66;;;16.89;87.53
13241;BME280;6687;47.790;7.322;2022-10-16T08:08:24;99058.47;;;16.93;86.92
13241;BME280;6687;47.790;7.322;2022-10-16T08:10:51;99056.53;;;17.01;86.32
13241;BME280;6687;47.790;7.322;2022-10-16T08:13:20;99047.59;;;17.11;87.39
13241;BME280;6687;47.790;7.322;2022-10-16T08:15:47;99057.84;;;17.20;86.49
13241;BME280;6687;47.790;7.322;2022-10-16T08:18:14;99057.84;;;17.20;85.90
13241;BME280;6687;47.790;7.322;2022-10-16T08:20:42;99058.66;;;17.22;85.39
13241;BME280;6687;47.790;7.322;2022-10-16T08:23:09;99049.69;;;17.33;85.59
13241;BME280;6687;47.790;7.322;2022-10-16T08:25:38;99047.84;;;17.36;85.31
13241;BME280;6687;47.790;7.322;2022-10-16T08:28:05;99045.34;;;17.32;85.89
13241;BME280;6687;47.790;7.322;2022-10-16T08:30:34;99047.69;;;17.44;86.38
13241;BME280;6687;47.790;7.322;2022-10-16T08:33:00;99060.59;;;17.52;86.09
13241;BME280;6687;47.790;7.322;2022-10-16T08:35:27;99074.53;;;17.52;85.67
13241;BME280;6687;47.790;7.322;2022-10-16T08:37:54;99065.78;;;17.53;85.98
13241;BME280;6687;47.790;7.322;2022-10-16T08:40:23;99078.44;;;17.72;85.61
13241;BME280;6687;47.790;7.322;2022-10-16T08:43:08;99082.63;;;17.79;85.59
13241;BME280;6687;47.790;7.322;2022-10-16T08:45:50;99079.78;;;17.88;85.55
13241;BME280;6687;47.790;7.322;2022-10-16T08:48:27;99081.47;;;17.91;85.76
13241;BME280;6687;47.790;7.322;2022-10-16T08:50:56;99077.88;;;17.95;85.99
13241;BME280;6687;47.790;7.322;2022-10-16T08:53:26;99088.88;;;18.07;85.74
13241;BME280;6687;47.790;7.322;2022-10-16T08:55:54;99093.06;;;18.15;85.87
13241;BME280;6687;47.790;7.322;2022-10-16T08:58:22;99100.78;;;18.21;85.97
13241;BME280;6687;47.790;7.322;2022-10-16T09:00:55;99103.56;;;18.15;86.97
13241;BME280;6687;47.790;7.322;2022-10-16T09:03:37;99099.16;;;18.17;87.26
13241;BME280;6687;47.790;7.322;2022-10-16T09:06:13;99094.97;;;18.08;87.31
13241;BME280;6687;47.790;7.322;2022-10-16T09:08:52;99100.94;;;18.15;87.88
13241;BME280;6687;47.790;7.322;2022-10-16T09:11:26;99103.31;;;18.24;88.30
13241;BME280;6687;47.790;7.322;2022-10-16T09:14:02;99101.41;;;18.31;88.16
13241;BME280;6687;47.790;7.322;2022-10-16T09:16:36;99101.19;;;18.38;87.85
13241;BME280;6687;47.790;7.322;2022-10-16T09:19:12;99101.75;;;18.48;87.48
13241;BME280;6687;47.790;7.322;2022-10-16T09:21:43;99099.50;;;18.67;87.36
13241;BME280;6687;47.790;7.322;2022-10-16T09:24:13;99101.19;;;18.68;87.02
13241;BME280;6687;47.790;7.322;2022-10-16T09:26:40;99111.28;;;18.83;86.74
13241;BME280;6687;47.790;7.322;2022-10-16T09:29:10;99112.91;;;18.87;87.49
13241;BME280;6687;47.790;7.322;2022-10-16T09:31:39;99108.38;;;18.94;86.91
13241;BME280;6687;47.790;7.322;2022-10-16T09:34:17;99115.91;;;19.05;87.12
13241;BME280;6687;47.790;7.322;2022-10-16T09:36:48;99115.69;;;19.13;86.87
13241;BME280;6687;47.790;7.322;2022-10-16T09:39:15;99118.75;;;19.25;86.71
13241;BME280;6687;47.790;7.322;2022-10-16T09:41:44;99116.72;;;19.07;87.58
13241;BME280;6687;47.790;7.322;2022-10-16T09:44:19;99117.53;;;19.09;87.29
13241;BME280;6687;47.790;7.322;2022-10-16T09:47:00;99122.75;;;19.39;86.76
13241;BME280;6687;47.790;7.322;2022-10-16T09:49:27;99119.25;;;19.38;86.18
13241;BME280;6687;47.790;7.322;2022-10-16T09:52:03;99116.59;;;19.40;86.67
13241;BME280;6687;47.790;7.322;2022-10-16T09:54:30;99114.66;;;19.45;87.93
13241;BME280;6687;47.790;7.322;2022-10-16T09:57:04;99116.97;;;19.56;87.74
13241;BME280;6687;47.790;7.322;2022-10-16T09:59:31;99124.69;;;19.60;87.54
13241;BME280;6687;47.790;7.322;2022-10-16T10:02:02;99116.56;;;19.68;87.80
13241;BME280;6687;47.790;7.322;2022-10-16T10:04:39;99120.00;;;19.70;87.21
13241;BME280;6687;47.790;7.322;2022-10-16T10:07:17;99117.06;;;19.79;86.82
13241;BME280;6687;47.790;7.322;2022-10-16T10:09:45;99121.44;;;19.80;87.02
13241;BME280;6687;47.790;7.322;2022-10-16T10:12:18;99119.78;;;19.78;86.42
13241;BME280;6687;47.790;7.322;2022-10-16T10:14:47;99112.44;;;19.88;85.21
13241;BME280;6687;47.790;7.322;2022-10-16T10:17:18;99116.41;;;19.99;84.52
13241;BME280;6687;47.790;7.322;2022-10-16T10:19:47;99119.97;;;20.23;84.51
13241;BME280;6687;47.790;7.322;2022-10-16T10:22:22;99129.94;;;20.39;84.83
13241;BME280;6687;47.790;7.322;2022-10-16T10:24:59;99119.16;;;20.46;83.88
13241;BME280;6687;47.790;7.322;2022-10-16T10:27:34;99113.66;;;20.53;83.11
13241;BME280;6687;47.790;7.322;2022-10-16T10:30:10;99116.56;;;20.70;83.43
13241;BME280;6687;47.790;7.322;2022-10-16T10:32:46;99120.69;;;20.77;81.14
13241;BME280;6687;47.790;7.322;2022-10-16T10:35:22;99113.56;;;20.56;81.04
13241;BME280;6687;47.790;7.322;2022-10-16T10:38:05;99111.88;;;20.78;82.14
13241;BME280;6687;47.790;7.322;2022-10-16T10:40:42;99100.19;;;21.09;81.87
13241;BME280;6687;47.790;7.322;2022-10-16T10:43:21;99102.72;;;21.11;81.25
13241;BME280;6687;47.790;7.322;2022-10-16T10:45:54;99108.63;;;21.17;81.46
13241;BME280;6687;47.790;7.322;2022-10-16T10:48:43;99111.22;;;21.41;81.10
13241;BME280;6687;47.790;7.322;2022-10-16T10:51:18;99106.66;;;21.22;81.55
13241;BME280;6687;47.790;7.322;2022-10-16T10:53:52;99099.97;;;21.59;80.06
13241;BME280;6687;47.790;7.322;2022-10-16T10:56:34;99100.06;;;21.56;80.27
13241;BME280;6687;47.790;7.322;2022-10-16T10:59:24;99095.59;;;21.58;80.06
13241;BME280;6687;47.790;7.322;2022-10-16T11:01:56;99103.47;;;21.80;79.81
13241;BME280;6687;47.790;7.322;2022-10-16T11:07:25;99093.00;;;21.79;80.65
13241;BME280;6687;47.790;7.322;2022-10-16T11:09:58;99101.34;;;22.11;76.10
13241;BME280;6687;47.790;7.322;2022-10-16T11:12:31;99111.00;;;22.32;80.05
13241;BME280;6687;47.790;7.322;2022-10-16T11:15:02;99113.81;;;22.28;77.18
13241;BME280;6687;47.790;7.322;2022-10-16T11:17:35;99110.31;;;22.27;75.44
13241;BME280;6687;47.790;7.322;2022-10-16T11:20:16;99111.56;;;22.39;80.22
13241;BME280;6687;47.790;7.322;2022-10-16T11:22:48;99109.00;;;22.37;79.86
13241;BME280;6687;47.790;7.322;2022-10-16T11:25:20;99108.72;;;22.43;74.71
13241;BME280;6687;47.790;7.322;2022-10-16T11:27:51;99110.16;;;22.30;82.23
13241;BME280;6687;47.790;7.322;2022-10-16T11:30:23;99109.25;;;22.31;78.54
13241;BME280;6687;47.790;7.322;2022-10-16T11:32:57;99098.03;;;22.26;80.23
13241;BME280;6687;47.790;7.322;2022-10-16T11:35:37;99096.47;;;22.42;79.95
13241;BME280;6687;47.790;7.322;2022-10-16T11:38:12;99106.13;;;22.42;80.89
13241;BME280;6687;47.790;7.322;2022-10-16T11:40:43;99091.56;;;22.33;84.52
13241;BME280;6687;47.790;7.322;2022-10-16T11:43:17;99080.63;;;22.42;82.68
13241;BME280;6687;47.790;7.322;2022-10-16T11:45:49;99095.78;;;22.37;84.39
13241;BME280;6687;47.790;7.322;2022-10-16T11:48:23;99093.44;;;22.31;85.76
13241;BME280;6687;47.790;7.322;2022-10-16T11:50:57;99097.53;;;22.38;85.25
13241;BME280;6687;47.790;7.322;2022-10-16T11:53:39;99091.44;;;22.36;87.38
13241;BME280;6687;47.790;7.322;2022-10-16T11:56:12;99091.19;;;22.42;85.15
13241;BME280;6687;47.790;7.322;2022-10-16T11:58:49;99087.81;;;22.58;85.79
13241;BME280;6687;47.790;7.322;2022-10-16T12:01:21;99085.63;;;22.68;85.28
13241;BME280;6687;47.790;7.322;2022-10-16T12:04:01;99090.75;;;22.52;85.30
13241;BME280;6687;47.790;7.322;2022-10-16T12:06:34;99090.13;;;22.66;83.68
13241;BME280;6687;47.790;7.322;2022-10-16T12:09:03;99087.19;;;22.72;84.45
13241;BME280;6687;47.790;7.322;2022-10-16T12:11:34;99085.94;;;22.80;82.39
13241;BME280;6687;47.790;7.322;2022-10-16T12:14:07;99080.66;;;22.80;84.70
13241;BME280;6687;47.790;7.322;2022-10-16T12:16:37;99081.72;;;22.76;85.39
13241;BME280;6687;47.790;7.322;2022-10-16T12:19:12;99070.09;;;22.80;83.77
13241;BME280;6687;47.790;7.322;2022-10-16T12:21:41;99069.00;;;22.84;81.68
13241;BME280;6687;47.790;7.322;2022-10-16T12:24:21;99069.44;;;22.75;84.92
13241;BME280;6687;47.790;7.322;2022-10-16T12:26:48;99065.63;;;22.62;63.76
13241;BME280;6687;47.790;7.322;2022-10-16T12:29:25;99063.22;;;22.76;70.20
13241;BME280;6687;47.790;7.322;2022-10-16T12:31:54;99069.78;;;22.87;80.81
13241;BME280;6687;47.790;7.322;2022-10-16T12:34:25;99060.78;;;22.91;81.59
13241;BME280;6687;47.790;7.322;2022-10-16T12:36:54;99064.59;;;22.66;60.43
13241;BME280;6687;47.790;7.322;2022-10-16T12:39:23;99054.94;;;22.65;59.74
13241;BME280;6687;47.790;7.322;2022-10-16T12:42:00;99044.72;;;22.76;77.75
13241;BME280;6687;47.790;7.322;2022-10-16T12:44:32;99049.53;;;22.68;68.07
13241;BME280;6687;47.790;7.322;2022-10-16T12:47:00;99048.22;;;22.58;62.71
13241;BME280;6687;47.790;7.322;2022-10-16T12:49:32;99050.34;;;22.50;58.92
13241;BME280;6687;47.790;7.322;2022-10-16T12:52:00;99044.78;;;22.37;52.88
13241;BME280;6687;47.790;7.322;2022-10-16T12:54:28;99044.50;;;22.43;56.00
13241;BME280;6687;47.790;7.322;2022-10-16T12:57:08;99041.78;;;22.44;55.90
13241;BME280;6687;47.790;7.322;2022-10-16T12:59:43;99044.44;;;22.44;58.56
13241;BME280;6687;47.790;7.322;2022-10-16T13:02:43;99050.00;;;22.38;56.08
13241;BME280;6687;47.790;7.322;2022-10-16T13:05:32;99059.63;;;22.39;53.25
13241;BME280;6687;47.790;7.322;2022-10-16T13:08:13;99038.66;;;22.36;53.33
13241;BME280;6687;47.790;7.322;2022-10-16T13:10:56;99043.66;;;22.42;53.09
13241;BME280;6687;47.790;7.322;2022-10-16T13:13:38;99044.44;;;22.44;53.50
13241;BME280;6687;47.790;7.322;2022-10-16T13:16:14;99052.63;;;22.38;52.96
13241;BME280;6687;47.790;7.322;2022-10-16T13:18:52;99049.22;;;22.55;71.00
13241;BME280;6687;47.790;7.322;2022-10-16T13:21:35;99055.22;;;22.59;70.87
13241;BME280;6687;47.790;7.322;2022-10-16T13:24:16;99049.72;;;22.44;58.10
13241;BME280;6687;47.790;7.322;2022-10-16T13:26:52;99054.63;;;22.33;52.91
13241;BME280;6687;47.790;7.322;2022-10-16T13:29:22;99056.34;;;22.53;66.17
13241;BME280;6687;47.790;7.322;2022-10-16T13:31:49;99044.78;;;22.37;55.47
13241;BME280;6687;47.790;7.322;2022-10-16T13:34:18;99052.84;;;22.53;58.73
13241;BME280;6687;47.790;7.322;2022-10-16T13:36:47;99047.72;;;22.69;77.15
13241;BME280;6687;47.790;7.322;2022-10-16T13:39:22;99044.44;;;22.63;72.50
13241;BME280;6687;47.790;7.322;2022-10-16T13:42:00;99045.72;;;22.55;58.51
13241;BME280;6687;47.790;7.322;2022-10-16T13:44:31;99048.09;;;22.61;61.00
13241;BME280;6687;47.790;7.322;2022-10-16T13:47:03;99042.38;;;22.70;70.76
13241;BME280;6687;47.790;7.322;2022-10-16T13:49:29;99045.78;;;22.53;55.05
13241;BME280;6687;47.790;7.322;2022-10-16T13:51:57;99046.13;;;22.46;53.15
13241;BME280;6687;47.790;7.322;2022-10-16T13:54:27;99045.84;;;22.52;53.66
13241;BME280;6687;47.790;7.322;2022-10-16T13:56:55;99038.50;;;22.77;69.38
13241;BME280;6687;47.790;7.322;2022-10-16T13:59:23;99038.44;;;22.60;58.54
13241;BME280;6687;47.790;7.322;2022-10-16T14:01:52;99044.44;;;22.82;67.49
13241;BME280;6687;47.790;7.322;2022-10-16T14:04:20;99043.53;;;22.64;54.75
13241;BME280;6687;47.790;7.322;2022-10-16T14:06:50;99048.63;;;22.68;52.29
13241;BME280;6687;47.790;7.322;2022-10-16T14:09:22;99046.84;;;22.87;63.69
13241;BME280;6687;47.790;7.322;2022-10-16T14:11:53;99051.78;;;22.95;69.91
13241;BME280;6687;47.790;7.322;2022-10-16T14:14:22;99056.72;;;22.83;55.93
13241;BME280;6687;47.790;7.322;2022-10-16T14:16:49;99047.41;;;22.94;63.09
13241;BME280;6687;47.790;7.322;2022-10-16T14:19:20;99050.06;;;22.94;64.62
13241;BME280;6687;47.790;7.322;2022-10-16T14:21:49;99050.78;;;22.97;68.75
13241;BME280;6687;47.790;7.322;2022-10-16T14:24:25;99052.22;;;22.86;56.59
13241;BME280;6687;47.790;7.322;2022-10-16T14:26:54;99051.66;;;22.98;64.35
13241;BME280;6687;47.790;7.322;2022-10-16T14:29:22;99050.59;;;23.02;64.99
13241;BME280;6687;47.790;7.322;2022-10-16T14:31:56;99057.38;;;23.08;67.70
13241;BME280;6687;47.790;7.322;2022-10-16T14:34:28;99055.59;;;23.08;63.34
13241;BME280;6687;47.790;7.322;2022-10-16T14:36:56;99054.41;;;23.14;63.81
13241;BME280;6687;47.790;7.322;2022-10-16T14:39:25;99051.22;;;23.07;59.25
13241;BME280;6687;47.790;7.322;2022-10-16T14:41:55;99049.66;;;23.03;55.41
13241;BME280;6687;47.790;7.322;2022-10-16T14:44:28;99057.53;;;23.05;57.05
13241;BME280;6687;47.790;7.322;2022-10-16T14:46:56;99057.94;;;23.14;69.29
13241;BME280;6687;47.790;7.322;2022-10-16T14:49:25;99062.06;;;23.01;57.52
13241;BME280;6687;47.790;7.322;2022-10-16T14:51:53;99067.50;;;22.98;55.54
13241;BME280;6687;47.790;7.322;2022-10-16T14:54:20;99061.09;;;23.03;58.08
13241;BME280;6687;47.790;7.322;2022-10-16T14:56:48;99061.22;;;23.00;55.81
13241;BME280;6687;47.790;7.322;2022-10-16T14:59:20;99059.31;;;23.04;56.63
13241;BME280;6687;47.790;7.322;2022-10-16T15:01:50;99058.56;;;23.00;56.94
13241;BME280;6687;47.790;7.322;2022-10-16T15:04:16;99052.63;;;22.95;56.43
13241;BME280;6687;47.790;7.322;2022-10-16T15:06:44;99056.06;;;22.97;57.71
13241;BME280;6687;47.790;7.322;2022-10-16T15:09:10;99063.59;;;23.07;67.10
13241;BME280;6687;47.790;7.322;2022-10-16T15:11:38;99054.34;;;23.15;76.17
13241;BME280;6687;47.790;7.322;2022-10-16T15:14:05;99054.16;;;23.20;78.67
13241;BME280;6687;47.790;7.322;2022-10-16T15:16:33;99055.31;;;23.14;73.67
13241;BME280;6687;47.790;7.322;2022-10-16T15:19:00;99050.22;;;22.91;61.94
13241;BME280;6687;47.790;7.322;2022-10-16T15:21:28;99058.53;;;23.02;67.40
13241;BME280;6687;47.790;7.322;2022-10-16T15:23:56;99057.94;;;22.76;58.43
13241;BME280;6687;47.790;7.322;2022-10-16T15:26:23;99064.31;;;22.72;57.26
13241;BME280;6687;47.790;7.322;2022-10-16T15:28:50;99065.59;;;22.82;63.88
13241;BME280;6687;47.790;7.322;2022-10-16T15:31:17;99066.94;;;22.72;60.00
13241;BME280;6687;47.790;7.322;2022-10-16T15:33:46;99068.63;;;22.73;64.36
13241;BME280;6687;47.790;7.322;2022-10-16T15:36:25;99069.72;;;22.69;64.59
13241;BME280;6687;47.790;7.322;2022-10-16T15:38:52;99070.78;;;22.65;64.75
13241;BME280;6687;47.790;7.322;2022-10-16T15:41:19;99065.84;;;22.57;62.60
13241;BME280;6687;47.790;7.322;2022-10-16T15:43:47;99065.78;;;22.59;64.17
13241;BME280;6687;47.790;7.322;2022-10-16T15:46:18;99068.72;;;22.53;62.72
13241;BME280;6687;47.790;7.322;2022-10-16T15:48:46;99069.34;;;22.58;68.99
13241;BME280;6687;47.790;7.322;2022-10-16T15:51:13;99076.34;;;22.59;70.33
13241;BME280;6687;47.790;7.322;2022-10-16T15:53:40;99075.50;;;22.58;70.10
13241;BME280;6687;47.790;7.322;2022-10-16T15:56:08;99076.47;;;22.56;69.78
13241;BME280;6687;47.790;7.322;2022-10-16T15:58:36;99083.47;;;22.57;70.94
13241;BME280;6687;47.790;7.322;2022-10-16T16:01:03;99079.41;;;22.50;69.51
13241;BME280;6687;47.790;7.322;2022-10-16T16:03:31;99078.59;;;22.48;68.60
13241;BME280;6687;47.790;7.322;2022-10-16T16:06:04;99074.25;;;22.47;70.75
13241;BME280;6687;47.790;7.322;2022-10-16T16:08:31;99075.34;;;22.42;70.53
13241;BME280;6687;47.790;7.322;2022-10-16T16:10:59;99070.34;;;22.36;70.58
13241;BME280;6687;47.790;7.322;2022-10-16T16:13:26;99081.13;;;22.30;70.15
13241;BME280;6687;47.790;7.322;2022-10-16T16:15:53;99077.00;;;22.24;70.23
13241;BME280;6687;47.790;7.322;2022-10-16T16:18:20;99079.28;;;22.12;68.42
13241;BME280;6687;47.790;7.322;2022-10-16T16:20:48;99075.06;;;22.08;68.33
13241;BME280;6687;47.790;7.322;2022-10-16T16:23:16;99078.03;;;22.00;69.40
13241;BME280;6687;47.790;7.322;2022-10-16T16:25:43;99080.03;;;21.95;69.97
13241;BME280;6687;47.790;7.322;2022-10-16T16:28:09;99076.72;;;21.90;71.06
13241;BME280;6687;47.790;7.322;2022-10-16T16:30:39;99074.34;;;21.83;72.03
13241;BME280;6687;47.790;7.322;2022-10-16T16:33:06;99081.78;;;21.74;71.08
13241;BME280;6687;47.790;7.322;2022-10-16T16:35:33;99085.72;;;21.63;70.94
13241;BME280;6687;47.790;7.322;2022-10-16T16:37:59;99087.78;;;21.57;71.02
13241;BME280;6687;47.790;7.322;2022-10-16T16:40:27;99088.06;;;21.49;71.22
13241;BME280;6687;47.790;7.322;2022-10-16T16:42:54;99090.13;;;21.41;71.23
13241;BME280;6687;47.790;7.322;2022-10-16T16:45:21;99083.50;;;21.31;71.25
13241;BME280;6687;47.790;7.322;2022-10-16T16:47:48;99101.53;;;21.19;70.39
13241;BME280;6687;47.790;7.322;2022-10-16T16:50:15;99097.47;;;21.11;70.42
13241;BME280;6687;47.790;7.322;2022-10-16T16:52:42;99096.00;;;21.03;70.68
13241;BME280;6687;47.790;7.322;2022-10-16T16:55:08;99096.34;;;20.94;71.17
13241;BME280;6687;47.790;7.322;2022-10-16T16:57:36;99113.38;;;20.85;71.22
13241;BME280;6687;47.790;7.322;2022-10-16T17:00:04;99109.53;;;20.71;71.06
13241;BME280;6687;47.790;7.322;2022-10-16T17:02:31;99114.00;;;20.43;72.00
13241;BME280;6687;47.790;7.322;2022-10-16T17:04:58;99112.75;;;20.54;71.90
13241;BME280;6687;47.790;7.322;2022-10-16T17:07:24;99115.38;;;20.54;74.34
13241;BME280;6687;47.790;7.322;2022-10-16T17:09:52;99118.34;;;20.44;73.54
13241;BME280;6687;47.790;7.322;2022-10-16T17:12:19;99129.09;;;20.38;74.20
13241;BME280;6687;47.790;7.322;2022-10-16T17:14:47;99134.66;;;20.29;73.83
13241;BME280;6687;47.790;7.322;2022-10-16T17:17:14;99135.94;;;19.92;73.81
13241;BME280;6687;47.790;7.322;2022-10-16T17:19:40;99140.78;;;20.04;74.10
13241;BME280;6687;47.790;7.322;2022-10-16T17:22:07;99147.97;;;19.99;73.98
13241;BME280;6687;47.790;7.322;2022-10-16T17:24:34;99152.69;;;19.61;75.41
13241;BME280;6687;47.790;7.322;2022-10-16T17:27:00;99152.78;;;19.86;79.47
13241;BME280;6687;47.790;7.322;2022-10-16T17:29:28;99158.31;;;19.49;77.41
13241;BME280;6687;47.790;7.322;2022-10-16T17:31:56;99167.41;;;19.39;77.57
13241;BME280;6687;47.790;7.322;2022-10-16T17:34:23;99174.75;;;19.27;77.40
13241;BME280;6687;47.790;7.322;2022-10-16T17:36:50;99174.97;;;19.20;78.51
13241;BME280;6687;47.790;7.322;2022-10-16T17:39:18;99183.78;;;19.19;77.76
13241;BME280;6687;47.790;7.322;2022-10-16T17:41:45;99181.00;;;18.94;79.71
13241;BME280;6687;47.790;7.322;2022-10-16T17:44:13;99189.94;;;19.18;78.56
13241;BME280;6687;47.790;7.322;2022-10-16T17:46:45;99193.06;;;19.01;78.91
13241;BME280;6687;47.790;7.322;2022-10-16T17:49:14;99192.34;;;18.63;79.39
13241;BME280;6687;47.790;7.322;2022-10-16T17:51:41;99200.75;;;19.07;78.51
13241;BME280;6687;47.790;7.322;2022-10-16T17:54:08;99194.88;;;18.99;78.43
13241;BME280;6687;47.790;7.322;2022-10-16T17:56:36;99201.38;;;18.85;79.05
13241;BME280;6687;47.790;7.322;2022-10-16T17:59:03;99201.50;;;18.81;79.38
13241;BME280;6687;47.790;7.322;2022-10-16T18:01:31;99208.53;;;18.79;79.15
13241;BME280;6687;47.790;7.322;2022-10-16T18:04:00;99214.66;;;18.46;80.19
13241;BME280;6687;47.790;7.322;2022-10-16T18:06:30;99223.38;;;18.47;80.92
13241;BME280;6687;47.790;7.322;2022-10-16T18:08:58;99227.78;;;18.46;81.29
13241;BME280;6687;47.790;7.322;2022-10-16T18:11:26;99236.97;;;18.63;80.20
13241;BME280;6687;47.790;7.322;2022-10-16T18:13:54;99227.31;;;18.63;80.00
13241;BME280;6687;47.790;7.322;2022-10-16T18:16:22;99233.88;;;18.47;80.18
13241;BME280;6687;47.790;7.322;2022-10-16T18:18:49;99235.66;;;18.46;80.63
13241;BME280;6687;47.790;7.322;2022-10-16T18:21:18;99243.19;;;18.24;82.16
13241;BME280;6687;47.790;7.322;2022-10-16T18:23:47;99237.06;;;18.24;82.64
13241;BME280;6687;47.790;7.322;2022-10-16T18:26:15;99241.09;;;18.39;81.92
13241;BME280;6687;47.790;7.322;2022-10-16T18:28:42;99249.97;;;18.33;81.78
13241;BME280;6687;47.790;7.322;2022-10-16T18:31:11;99255.19;;;18.35;82.00
13241;BME280;6687;47.790;7.322;2022-10-16T18:33:38;99264.31;;;18.18;83.98
13241;BME280;6687;47.790;7.322;2022-10-16T18:36:07;99263.63;;;18.10;83.89
13241;BME280;6687;47.790;7.322;2022-10-16T18:38:35;99264.25;;;18.21;83.78
13241;BME280;6687;47.790;7.322;2022-10-16T18:41:04;99261.59;;;18.23;83.43
13241;BME280;6687;47.790;7.322;2022-10-16T18:43:31;99259.84;;;18.22;83.49
13241;BME280;6687;47.790;7.322;2022-10-16T18:45:59;99256.50;;;18.17;83.82
13241;BME280;6687;47.790;7.322;2022-10-16T18:48:26;99260.13;;;18.11;83.57
13241;BME280;6687;47.790;7.322;2022-10-16T18:51:05;99270.78;;;18.03;83.56
13241;BME280;6687;47.790;7.322;2022-10-16T18:53:32;99268.47;;;17.91;84.13
13241;BME280;6687;47.790;7.322;2022-10-16T18:55:59;99271.09;;;17.91;84.20
13241;BME280;6687;47.790;7.322;2022-10-16T18:58:27;99272.78;;;17.92;83.88
13241;BME280;6687;47.790;7.322;2022-10-16T19:00:54;99264.88;;;17.95;84.38
13241;BME280;6687;47.790;7.322;2022-10-16T19:03:21;99273.63;;;17.94;86.18
13241;BME280;6687;47.790;7.322;2022-10-16T19:05:48;99270.16;;;17.92;88.01
13241;BME280;6687;47.790;7.322;2022-10-16T19:08:15;99278.03;;;17.92;88.20
13241;BME280;6687;47.790;7.322;2022-10-16T19:10:41;99278.13;;;17.89;88.64
13241;BME280;6687;47.790;7.322;2022-10-16T19:13:08;99280.84;;;17.84;89.09
13241;BME280;6687;47.790;7.322;2022-10-16T19:15:41;99281.63;;;17.88;91.83
13241;BME280;6687;47.790;7.322;2022-10-16T19:18:09;99286.97;;;17.85;90.63
13241;BME280;6687;47.790;7.322;2022-10-16T19:20:35;99296.06;;;17.67;89.98
13241;BME280;6687;47.790;7.322;2022-10-16T19:23:02;99300.06;;;17.43;90.49
13241;BME280;6687;47.790;7.322;2022-10-16T19:25:29;99300.78;;;17.49;90.14
13241;BME280;6687;47.790;7.322;2022-10-16T19:27:55;99307.84;;;17.46;89.49
13241;BME280;6687;47.790;7.322;2022-10-16T19:30:30;99314.84;;;17.45;89.66
13241;BME280;6687;47.790;7.322;2022-10-16T19:32:58;99314.00;;;17.45;89.72
13241;BME280;6687;47.790;7.322;2022-10-16T19:35:25;99318.63;;;17.30;89.85
13241;BME280;6687;47.790;7.322;2022-10-16T19:37:51;99316.00;;;17.30;89.86
13241;BME280;6687;47.790;7.322;2022-10-16T19:40:18;99309.88;;;17.32;89.76